マドリード/バラハス の空港の天気 - METARとTAF

マドリード・バラハス国際空港 ( LEMD / MAD ) - スペイン マドリード
飛行場実況気象(Metar)
観測時間10/23 08:00 CEST (10/23 06:00 UTC)
風向・風速南西 2m/s
視程10km以上
天気現象弱い霧雨
全天の4割程度の雲 雲底高度 370m
全天の8割程度の雲 雲底高度 1070m
気温8℃
湿度93%
気圧1006hPa
METARLEMD 230600Z 23004KT 200V260 9999 -DZ SCT012 BKN035 08/07 Q1006 R88/29//95 NOSIG
過去の天気等 Google飛行場航空写真 Wunderground天気予報

過去48時間のMETAR

飛行場予報(TAF)
発表時間: 10/23 07:00 CEST (10/23 05:00 UTC)
予報対象時間: 23日8時 CEST ~ 24日14時 CEST
風向・風速不定 2m/s
視程10km以上
全天の4割程度の雲 雲底高度 370m
全天の8割程度の雲 雲底高度 1070m
23日8時 CEST ~ 24日5時 CEST に 確率 40% で一時的に
視程2000m
天気現象雨霧雨 もや
全天の8割程度の雲 雲底高度 300m
23日9時 CEST ~ 23日20時 CEST に 確率 40% で一時的に
風向・風速南西 3m/s 瞬間風速 8m/s
24日6時 CEST ~ 24日10時 CEST に 確率 30% で一時的に
視程800m
天気現象
全天を覆う雲 雲底高度 240m
TAF LEMD 230500Z 2306/2412 VRB04KT 9999 SCT012 BKN035 TX12/2316Z TN07/2307Z
PROB40 TEMPO 2306/2403 2000 RADZ BR BKN010
PROB40 TEMPO 2307/2318 23006G16KT
PROB30 TEMPO 2404/2408 0800 FG OVC008